Asiatic Wave — 9V8790 — position and weather

sailwx.info

Track history (hours):
 
Tides and Currents Weather Stations Pressure Air Temp Water Temp Dewpoint Dewpoint Depression Visibility Wind Speed Wind Dir Waves Ship Positions

Asiatic Wave

Last reported at 2015-Jan-26 21:14 UTC. Time now 2015-Jan-30 23:25 UTC.
Position N 30°58' E 122°36'.

Length 100 m; draft 7.8 m.

Type: Ship (hazmat cat A). MMSI: 564211000.

Date/timePositionNaut miles runAvg speedWind from/ knotsBaromVisibWave heightAir tempDewpointWater temp
2015-Jan-26 21:14N 30°58' E 122°36'1015.5
2015-Jan-26 20:33N 31°01' E 122°24'1212.3
2015-Jan-26 19:33N 31°03' E 122°10'1010.3
2015-Jan-26 18:33N 31°06' E 121°58'1212.5
2015-Jan-26 17:34N 31°14' E 121°47'1312.7
2015-Jan-26 16:33N 31°22' E 121°36'0 0.4
2015-Jan-26 15:33N 31°22' E 121°35'0 0.0
2015-Jan-26 14:29N 31°22' E 121°35'0 0.0
2015-Jan-26 13:32N 31°22' E 121°35'0 0.0
2015-Jan-26 12:33N 31°22' E 121°35'0 0.0
2015-Jan-26 11:30N 31°22' E 121°35'0 0.0
2015-Jan-26 10:31N 31°22' E 121°35'0 0.0
2015-Jan-26 09:33N 31°22' E 121°35'0 0.0
2015-Jan-26 08:33N 31°22' E 121°35'0 0.1
2015-Jan-26 07:33N 31°22' E 121°35'9 9.2
2015-Jan-26 06:33N 31°17' E 121°44'1514.9
2015-Jan-26 05:33N 31°07' E 121°57'1414.1
2015-Jan-26 04:33N 31°03' E 122°13'1413.6
2015-Jan-26 03:33N 31°01' E 122°28'11 0.9
2015-Jan-25 16:18N 31°09' E 122°36'0 0.0
2015-Jan-25 15:12N 31°09' E 122°36'19 9.3
2015-Jan-25 13:09N 30°54' E 122°50'1013.8
2015-Jan-25 12:24N 30°45' E 122°56'1214.6
2015-Jan-25 11:33N 30°33' E 123°01'3514.7
2015-Jan-25 09:11N 29°59' E 122°54'1117.0
2015-Jan-25 08:32N 29°50' E 122°46'1616.2
2015-Jan-25 07:34N 29°41' E 122°32'1413.6
2015-Jan-25 06:33N 29°46' E 122°17'1010.3
2015-Jan-25 05:33N 29°54' E 122°10'9 8.8
2015-Jan-25 04:33N 29°56' E 122°00'4 4.1
2015-Jan-25 03:30N 29°56' E 121°55'0 0.0
2015-Jan-25 00:21N 29°56' E 121°55'0 0.0
2015-Jan-24 22:20N 29°56' E 121°55'0 0.0
2015-Jan-24 21:32N 29°56' E 121°55'0 0.0
2015-Jan-24 20:07N 29°56' E 121°55'0 0.0
2015-Jan-24 19:07N 29°56' E 121°55'0 0.0
2015-Jan-24 16:18N 29°56' E 121°55'0 0.0
2015-Jan-24 15:17N 29°56' E 121°55'0 0.0
2015-Jan-24 14:11N 29°56' E 121°55'1 1.8
2015-Jan-24 13:33N 29°57' E 121°56'1312.6
2015-Jan-24 12:33N 29°55' E 122°10'1211.8
2015-Jan-24 11:33N 29°45' E 122°19'6 6.4
2015-Jan-24 10:34N 29°46' E 122°26'0 0.0
2015-Jan-24 05:12N 29°46' E 122°26'0 0.0
2015-Jan-24 04:06N 29°46' E 122°26'0 0.0
2015-Jan-24 00:28N 29°46' E 122°26'0 0.0
2015-Jan-23 23:22N 29°46' E 122°26'0 0.0
2015-Jan-23 22:21N 29°46' E 122°26'0 0.0
2015-Jan-23 21:27N 29°46' E 122°26'0 0.0
2015-Jan-23 20:33N 29°46' E 122°26'0 0.0
2015-Jan-23 19:08N 29°46' E 122°26'0 0.0
2015-Jan-23 17:17N 29°46' E 122°26'0 0.1
2015-Jan-23 16:31N 29°46' E 122°26'0 0.0
2015-Jan-23 15:18N 29°46' E 122°26'0 0.0
2015-Jan-23 13:17N 29°46' E 122°26'0 0.0
2015-Jan-23 12:23N 29°46' E 122°26'0 0.0
2015-Jan-23 10:28N 29°46' E 122°26'0 0.0
2015-Jan-23 08:21N 29°46' E 122°26'0 0.0
2015-Jan-23 07:09N 29°46' E 122°26'0 0.0
2015-Jan-23 06:32N 29°46' E 122°26'0 0.0
2015-Jan-23 00:06N 29°46' E 122°26'0 0.0
2015-Jan-22 23:29N 29°46' E 122°26'0 0.0
2015-Jan-22 18:33N 29°46' E 122°26'0 0.0
2015-Jan-22 17:27N 29°46' E 122°26'0 0.0
2015-Jan-22 16:14N 29°46' E 122°26'0 0.0
2015-Jan-22 15:20N 29°46' E 122°26'0 0.0
2015-Jan-22 13:07N 29°46' E 122°26'0 0.0
2015-Jan-22 12:31N 29°46' E 122°26'0 0.0
2015-Jan-22 11:30N 29°46' E 122°26'0 0.0
2015-Jan-22 09:11N 29°46' E 122°26'0 0.0
2015-Jan-22 07:04N 29°46' E 122°26'0 0.0
2015-Jan-22 04:21N 29°46' E 122°26'0 0.0
2015-Jan-22 03:33N 29°46' E 122°26'0 0.0
2015-Jan-22 02:14N 29°46' E 122°26'0 0.0
2015-Jan-22 00:19N 29°46' E 122°26'0 0.0
2015-Jan-21 23:13N 29°46' E 122°26'0 0.1
2015-Jan-21 22:19N 29°46' E 122°26'0 0.0
2015-Jan-21 19:29N 29°46' E 122°26'0 0.0
2015-Jan-21 18:29N 29°46' E 122°26'0 0.0
2015-Jan-21 17:28N 29°46' E 122°26'0 0.0
2015-Jan-21 16:04N 29°46' E 122°26'0 0.1
2015-Jan-21 11:33N 29°45' E 122°26'8 8.4
2015-Jan-21 10:33N 29°41' E 122°34'1211.8
2015-Jan-21 09:31N 29°29' E 122°35'1212.1
2015-Jan-21 08:33N 29°17' E 122°33'41013.6
2015-Jan-20 02:32N 22°52' E 119°59'1414.0
2015-Jan-20 01:33N 22°39' E 120°06'1211.8
2015-Jan-20 00:33N 22°33' E 120°17'2 2.4
2015-Jan-19 23:33N 22°33' E 120°19'0 0.2
2015-Jan-19 22:29N 22°34' E 120°19'0 0.0
2015-Jan-19 21:29N 22°34' E 120°19'0 0.0
2015-Jan-19 20:28N 22°34' E 120°19'0 0.0
2015-Jan-19 19:28N 22°34' E 120°19'0 0.0
2015-Jan-19 18:33N 22°34' E 120°19'0 0.0
2015-Jan-19 17:31N 22°34' E 120°19'0 0.0
2015-Jan-19 16:30N 22°34' E 120°19'0 0.1
2015-Jan-19 15:33N 22°33' E 120°19'0 0.3
2015-Jan-19 14:28N 22°33' E 120°20'0 0.0
2015-Jan-19 13:28N 22°33' E 120°20'0 0.0
2015-Jan-19 12:33N 22°33' E 120°20'0 0.0
2015-Jan-19 11:33N 22°33' E 120°20'0 0.0
2015-Jan-19 10:33N 22°33' E 120°20'0 0.0
2015-Jan-19 09:33N 22°33' E 120°20'0 0.1
2015-Jan-19 08:34N 22°33' E 120°20'6 5.5
2015-Jan-19 07:33N 22°32' E 120°14'6 6.2
2015-Jan-19 06:33N 22°26' E 120°13'8 8.0
2015-Jan-19 05:33N 22°18' E 120°13'  
Track history (hours):
 
Tides and Currents Weather Stations Pressure Air Temp Water Temp Dewpoint Dewpoint Depression Visibility Wind Speed Wind Dir Waves Ship Positions

Asiatic Wave

Last reported at 2015-Jan-26 21:14 UTC. Time now 2015-Jan-30 23:25 UTC.
Position N 30°58' E 122°36'.

Length 100 m; draft 7.8 m.

Type: Ship (hazmat cat A). MMSI: 564211000.

Date/timePositionNaut miles runAvg speedWind from/ knotsBaromVisibWave heightAir tempDewpointWater temp
2015-Jan-26 21:14N 30°58' E 122°36'1015.5
2015-Jan-26 20:33N 31°01' E 122°24'1212.3
2015-Jan-26 19:33N 31°03' E 122°10'1010.3
2015-Jan-26 18:33N 31°06' E 121°58'1212.5
2015-Jan-26 17:34N 31°14' E 121°47'1312.7
2015-Jan-26 16:33N 31°22' E 121°36'0 0.4
2015-Jan-26 15:33N 31°22' E 121°35'0 0.0
2015-Jan-26 14:29N 31°22' E 121°35'0 0.0
2015-Jan-26 13:32N 31°22' E 121°35'0 0.0
2015-Jan-26 12:33N 31°22' E 121°35'0 0.0
2015-Jan-26 11:30N 31°22' E 121°35'0 0.0
2015-Jan-26 10:31N 31°22' E 121°35'0 0.0
2015-Jan-26 09:33N 31°22' E 121°35'0 0.0
2015-Jan-26 08:33N 31°22' E 121°35'0 0.1
2015-Jan-26 07:33N 31°22' E 121°35'9 9.2
2015-Jan-26 06:33N 31°17' E 121°44'1514.9
2015-Jan-26 05:33N 31°07' E 121°57'1414.1
2015-Jan-26 04:33N 31°03' E 122°13'1413.6
2015-Jan-26 03:33N 31°01' E 122°28'11 0.9
2015-Jan-25 16:18N 31°09' E 122°36'0 0.0
2015-Jan-25 15:12N 31°09' E 122°36'19 9.3
2015-Jan-25 13:09N 30°54' E 122°50'1013.8
2015-Jan-25 12:24N 30°45' E 122°56'1214.6
2015-Jan-25 11:33N 30°33' E 123°01'3514.7
2015-Jan-25 09:11N 29°59' E 122°54'1117.0
2015-Jan-25 08:32N 29°50' E 122°46'1616.2
2015-Jan-25 07:34N 29°41' E 122°32'1413.6
2015-Jan-25 06:33N 29°46' E 122°17'1010.3
2015-Jan-25 05:33N 29°54' E 122°10'9 8.8
2015-Jan-25 04:33N 29°56' E 122°00'4 4.1
2015-Jan-25 03:30N 29°56' E 121°55'0 0.0
2015-Jan-25 00:21N 29°56' E 121°55'0 0.0
2015-Jan-24 22:20N 29°56' E 121°55'0 0.0
2015-Jan-24 21:32N 29°56' E 121°55'0 0.0
2015-Jan-24 20:07N 29°56' E 121°55'0 0.0
2015-Jan-24 19:07N 29°56' E 121°55'0 0.0
2015-Jan-24 16:18N 29°56' E 121°55'0 0.0
2015-Jan-24 15:17N 29°56' E 121°55'0 0.0
2015-Jan-24 14:11N 29°56' E 121°55'1 1.8
2015-Jan-24 13:33N 29°57' E 121°56'1312.6
2015-Jan-24 12:33N 29°55' E 122°10'1211.8
2015-Jan-24 11:33N 29°45' E 122°19'6 6.4
2015-Jan-24 10:34N 29°46' E 122°26'0 0.0
2015-Jan-24 05:12N 29°46' E 122°26'0 0.0
2015-Jan-24 04:06N 29°46' E 122°26'0 0.0
2015-Jan-24 00:28N 29°46' E 122°26'0 0.0
2015-Jan-23 23:22N 29°46' E 122°26'0 0.0
2015-Jan-23 22:21N 29°46' E 122°26'0 0.0
2015-Jan-23 21:27N 29°46' E 122°26'0 0.0
2015-Jan-23 20:33N 29°46' E 122°26'0 0.0
2015-Jan-23 19:08N 29°46' E 122°26'0 0.0
2015-Jan-23 17:17N 29°46' E 122°26'0 0.1
2015-Jan-23 16:31N 29°46' E 122°26'0 0.0
2015-Jan-23 15:18N 29°46' E 122°26'0 0.0
2015-Jan-23 13:17N 29°46' E 122°26'0 0.0
2015-Jan-23 12:23N 29°46' E 122°26'0 0.0
2015-Jan-23 10:28N 29°46' E 122°26'0 0.0
2015-Jan-23 08:21N 29°46' E 122°26'0 0.0
2015-Jan-23 07:09N 29°46' E 122°26'0 0.0
2015-Jan-23 06:32N 29°46' E 122°26'0 0.0
2015-Jan-23 00:06N 29°46' E 122°26'0 0.0
2015-Jan-22 23:29N 29°46' E 122°26'0 0.0
2015-Jan-22 18:33N 29°46' E 122°26'0 0.0
2015-Jan-22 17:27N 29°46' E 122°26'0 0.0
2015-Jan-22 16:14N 29°46' E 122°26'0 0.0
2015-Jan-22 15:20N 29°46' E 122°26'0 0.0
2015-Jan-22 13:07N 29°46' E 122°26'0 0.0
2015-Jan-22 12:31N 29°46' E 122°26'0 0.0
2015-Jan-22 11:30N 29°46' E 122°26'0 0.0
2015-Jan-22 09:11N 29°46' E 122°26'0 0.0
2015-Jan-22 07:04N 29°46' E 122°26'0 0.0
2015-Jan-22 04:21N 29°46' E 122°26'0 0.0
2015-Jan-22 03:33N 29°46' E 122°26'0 0.0
2015-Jan-22 02:14N 29°46' E 122°26'0 0.0
2015-Jan-22 00:19N 29°46' E 122°26'0 0.0
2015-Jan-21 23:13N 29°46' E 122°26'0 0.1
2015-Jan-21 22:19N 29°46' E 122°26'0 0.0
2015-Jan-21 19:29N 29°46' E 122°26'0 0.0
2015-Jan-21 18:29N 29°46' E 122°26'0 0.0
2015-Jan-21 17:28N 29°46' E 122°26'0 0.0
2015-Jan-21 16:04N 29°46' E 122°26'0 0.1
2015-Jan-21 11:33N 29°45' E 122°26'8 8.4
2015-Jan-21 10:33N 29°41' E 122°34'1211.8
2015-Jan-21 09:31N 29°29' E 122°35'1212.1
2015-Jan-21 08:33N 29°17' E 122°33'41013.6
2015-Jan-20 02:32N 22°52' E 119°59'1414.0
2015-Jan-20 01:33N 22°39' E 120°06'1211.8
2015-Jan-20 00:33N 22°33' E 120°17'2 2.4
2015-Jan-19 23:33N 22°33' E 120°19'0 0.2
2015-Jan-19 22:29N 22°34' E 120°19'0 0.0
2015-Jan-19 21:29N 22°34' E 120°19'0 0.0
2015-Jan-19 20:28N 22°34' E 120°19'0 0.0
2015-Jan-19 19:28N 22°34' E 120°19'0 0.0
2015-Jan-19 18:33N 22°34' E 120°19'0 0.0
2015-Jan-19 17:31N 22°34' E 120°19'0 0.0
2015-Jan-19 16:30N 22°34' E 120°19'0 0.1
2015-Jan-19 15:33N 22°33' E 120°19'0 0.3
2015-Jan-19 14:28N 22°33' E 120°20'0 0.0
2015-Jan-19 13:28N 22°33' E 120°20'0 0.0
2015-Jan-19 12:33N 22°33' E 120°20'0 0.0
2015-Jan-19 11:33N 22°33' E 120°20'0 0.0
2015-Jan-19 10:33N 22°33' E 120°20'0 0.0
2015-Jan-19 09:33N 22°33' E 120°20'0 0.1
2015-Jan-19 08:34N 22°33' E 120°20'6 5.5
2015-Jan-19 07:33N 22°32' E 120°14'6 6.2
2015-Jan-19 06:33N 22°26' E 120°13'8 8.0
2015-Jan-19 05:33N 22°18' E 120°13'  

Dump ship's entire track history